Time;durP1;ratioP1;P1;durP2;ratioP2;P2;SDS_P1;SDS_P2;PMS_P1;PMS_P2;Temp;Humidity;BMP_temperature;BMP_pressure;BME280_temperature;BME280_humidity;BME280_pressure;Samples;Min_cycle;Max_cycle;Signal;HPM_P1;HPM_P2
2022/11/06 00:09:58;;;;;;;25.67;14.02;;;;;;;3.41;79.74;100629.47;30621246;28;97294;-70
2022/11/06 00:24:58;;;;;;;24.35;13.45;;;;;;;3.28;80.25;100645.31;30620901;28;97363;-70
2022/11/06 00:39:59;;;;;;;23.00;14.30;;;;;;;3.15;80.15;100648.00;30619377;28;96739;-68
2022/11/06 00:55:00;;;;;;;27.23;13.93;;;;;;;3.01;80.18;100654.28;30618100;28;96848;-70
2022/11/06 01:10:00;;;;;;;24.35;13.65;;;;;;;2.91;80.47;100643.53;30616932;28;96661;-71
2022/11/06 01:25:01;;;;;;;20.45;11.63;;;;;;;2.73;81.03;100658.00;30615162;28;96646;-70
2022/11/06 01:40:02;;;;;;;25.42;14.05;;;;;;;2.49;80.63;100643.84;30614193;28;96710;-69
2022/11/06 01:55:16;;;;;;;40.22;21.40;;;;;;;2.31;81.27;100648.59;30613092;28;98498;-70
2022/11/06 02:10:16;;;;;;;23.85;14.88;;;;;;;2.12;81.18;100641.13;30612117;28;96629;-70
2022/11/06 02:25:45;;;;;;;31.08;15.88;;;;;;;1.98;80.93;100656.97;30614609;28;97480;-71
2022/11/06 02:40:53;;;;;;;30.92;16.45;;;;;;;1.79;81.19;100641.59;30630366;28;98648;-72
2022/11/06 02:55:59;;;;;;;28.75;17.95;;;;;;;1.76;81.47;100655.78;30627807;28;98934;-69
2022/11/06 03:11:21;;;;;;;33.40;17.25;;;;;;;1.65;82.03;100653.88;30628421;28;97042;-70
2022/11/06 03:26:32;;;;;;;27.20;16.90;;;;;;;1.66;82.32;100642.41;30627267;28;96811;-69
2022/11/06 03:42:20;;;;;;;29.67;17.85;;;;;;;1.56;81.98;100645.75;30624603;28;96793;-69
2022/11/06 03:57:30;;;;;;;33.40;17.75;;;;;;;1.36;81.55;100650.53;30633749;28;97134;-70
2022/11/06 04:28:04;;;;;;;27.77;15.43;;;;;;;1.02;81.71;100642.19;30621164;28;97012;-70
2022/11/06 04:43:19;;;;;;;26.83;14.43;;;;;;;0.86;81.98;100646.72;30618337;28;96706;-70
2022/11/06 04:58:19;;;;;;;26.63;16.17;;;;;;;0.84;82.04;100641.56;30617478;28;97007;-71
2022/11/06 05:13:19;;;;;;;32.03;15.40;;;;;;;0.76;82.39;100652.53;30615401;28;97170;-69
2022/11/06 05:28:20;;;;;;;25.02;14.43;;;;;;;0.67;81.94;100632.16;30613310;28;96731;-70
2022/11/06 05:43:20;;;;;;;26.23;13.68;;;;;;;0.58;82.08;100649.28;30612662;28;96674;-70
2022/11/06 05:58:21;;;;;;;24.40;14.98;;;;;;;0.54;82.10;100652.19;30610840;28;97187;-69
2022/11/06 06:13:21;;;;;;;28.17;18.35;;;;;;;0.82;82.43;100643.44;30609032;28;97322;-69
2022/11/06 06:28:21;;;;;;;26.17;15.45;;;;;;;1.12;82.60;100653.78;30608367;28;97767;-70
2022/11/06 06:43:22;;;;;;;27.23;15.13;;;;;;;2.08;83.39;100665.06;30606760;28;96722;-70
2022/11/06 06:58:22;;;;;;;20.42;13.10;;;;;;;2.85;82.02;100667.66;30605512;28;96655;-70
2022/11/06 07:13:23;;;;;;;30.50;14.57;;;;;;;3.84;82.30;100671.06;30609533;28;97278;-70
2022/11/06 07:28:23;;;;;;;24.85;12.55;;;;;;;5.19;81.42;100678.22;30624812;28;96733;-71
2022/11/06 07:43:25;;;;;;;15.90;10.57;;;;;;;5.57;80.26;100658.41;30622736;28;97086;-71
2022/11/06 07:58:26;;;;;;;18.20;10.35;;;;;;;7.36;80.58;100650.22;30621259;28;97757;-70
2022/11/06 08:13:26;;;;;;;16.88;10.05;;;;;;;10.54;77.66;100669.44;30618828;28;99692;-70
2022/11/06 08:28:27;;;;;;;19.67;9.57;;;;;;;23.29;59.77;100668.69;30618303;28;97346;-69
2022/11/06 08:43:27;;;;;;;12.85;8.30;;;;;;;29.28;43.39;100659.69;30617489;28;97478;-69
2022/11/06 08:58:28;;;;;;;12.63;7.28;;;;;;;32.76;34.32;100664.66;30616181;28;96726;-70
2022/11/06 09:13:28;;;;;;;10.05;6.72;;;;;;;33.52;24.52;100664.06;30614793;28;96761;-70
2022/11/06 09:28:28;;;;;;;10.73;6.03;;;;;;;34.51;19.39;100665.91;30615195;28;96843;-70
2022/11/06 09:44:08;;;;;;;9.02;4.45;;;;;;;36.06;18.08;100659.88;30609988;28;96710;-70
2022/11/06 09:59:13;;;;;;;10.23;4.30;;;;;;;34.28;17.27;100646.59;30611057;28;97243;-69
2022/11/06 10:14:55;;;;;;;8.13;3.93;;;;;;;36.08;16.77;100637.38;30608835;28;97096;-71
2022/11/06 10:30:05;;;;;;;6.17;3.60;;;;;;;36.22;15.87;100626.06;30610033;28;97111;-74
2022/11/06 10:45:13;;;;;;;9.97;3.20;;;;;;;38.17;15.21;100594.31;30624280;28;96780;-73
2022/11/06 11:00:15;;;;;;;7.63;2.90;;;;;;;39.11;13.84;100567.31;30627307;28;97321;-75
2022/11/06 11:15:21;;;;;;;6.33;2.43;;;;;;;39.18;13.14;100538.84;30624231;28;98022;-72
2022/11/06 11:30:25;;;;;;;4.67;1.90;;;;;;;40.48;13.35;100500.94;30624245;28;96757;-74
2022/11/06 11:45:25;;;;;;;6.50;2.17;;;;;;;40.34;12.36;100467.97;30621700;28;97266;-73
2022/11/06 12:00:27;;;;;;;6.32;2.25;;;;;;;40.33;12.72;100459.97;30619670;28;97382;-72
2022/11/06 12:15:54;;;;;;;3.37;1.80;;;;;;;39.52;12.29;100441.78;30620368;28;96752;-75
2022/11/06 12:31:04;;;;;;;5.00;2.17;;;;;;;38.58;13.13;100420.66;30617886;28;97260;-74
2022/11/06 12:46:34;;;;;;;5.77;1.80;;;;;;;37.64;13.47;100413.47;30616382;28;96786;-72
2022/11/06 13:01:52;;;;;;;6.40;1.80;;;;;;;35.36;15.05;100394.16;30615299;28;97086;-75
2022/11/06 13:17:06;;;;;;;5.53;2.17;;;;;;;34.39;16.25;100392.75;30614215;28;97096;-75
2022/11/06 13:32:20;;;;;;;7.10;1.93;;;;;;;33.37;17.37;100378.91;30613669;28;97541;-73
2022/11/06 13:47:32;;;;;;;6.40;2.23;;;;;;;31.07;18.88;100358.31;30610287;28;97388;-72
2022/11/06 14:02:54;;;;;;;6.20;2.30;;;;;;;28.78;21.33;100347.16;30609700;28;96749;-73
2022/11/06 14:17:57;;;;;;;4.53;1.80;;;;;;;26.46;23.50;100342.63;30609377;28;98690;-74
2022/11/06 14:32:58;;;;;;;6.13;2.10;;;;;;;24.27;26.08;100334.69;30627829;28;96694;-74
2022/11/06 14:47:58;;;;;;;8.18;2.65;;;;;;;22.23;28.56;100329.69;30626611;28;96777;-72
2022/11/06 15:03:02;;;;;;;9.07;2.33;;;;;;;18.92;32.99;100326.19;30628047;28;97620;-72
2022/11/06 15:18:03;;;;;;;7.17;3.10;;;;;;;14.34;39.35;100313.03;30626835;28;97597;-76
2022/11/06 15:33:11;;;;;;;13.30;6.13;;;;;;;11.66;44.05;100314.38;30623917;28;98184;-76
2022/11/06 15:48:22;;;;;;;16.87;7.63;;;;;;;9.86;50.15;100281.63;30622340;28;96858;-72
2022/11/06 16:03:25;;;;;;;14.53;7.07;;;;;;;8.65;54.58;100280.75;30623490;28;96806;-72
2022/11/06 16:18:38;;;;;;;13.73;7.87;;;;;;;7.86;57.29;100293.81;30620533;28;96890;-70
2022/11/06 16:33:39;;;;;;;19.13;8.87;;;;;;;7.23;59.97;100276.00;30620128;28;97454;-72
2022/11/06 16:48:41;;;;;;;22.88;9.98;;;;;;;6.65;61.61;100269.94;30612573;28;97481;-76
2022/11/06 17:04:00;;;;;;;18.45;9.80;;;;;;;6.23;62.83;100263.19;30616324;28;96922;-72
2022/11/06 17:19:00;;;;;;;17.50;9.48;;;;;;;5.84;64.15;100251.75;30613006;28;98599;-72
2022/11/06 17:34:01;;;;;;;21.42;10.90;;;;;;;5.53;65.30;100241.25;30608466;28;97036;-72
2022/11/06 17:49:02;;;;;;;20.35;10.05;;;;;;;5.25;66.16;100233.13;30603578;28;97549;-72
2022/11/06 18:04:03;;;;;;;28.48;11.18;;;;;;;4.97;66.81;100217.03;30607967;28;96790;-72
2022/11/06 18:19:13;;;;;;;27.30;11.77;;;;;;;4.73;68.27;100214.75;30592965;28;97022;-72
2022/11/06 18:34:15;;;;;;;32.45;12.35;;;;;;;4.44;68.61;100210.13;30594925;28;97575;-73
2022/11/06 18:49:16;;;;;;;25.98;11.98;;;;;;;4.17;69.51;100214.13;30592692;28;97178;-71
2022/11/06 19:04:16;;;;;;;25.95;12.70;;;;;;;4.03;70.08;100222.34;30594939;28;97006;-72
2022/11/06 19:19:17;;;;;;;31.88;15.05;;;;;;;3.81;70.82;100208.28;30603351;28;97460;-71
2022/11/06 19:34:19;;;;;;;37.70;16.25;;;;;;;3.70;71.71;100216.25;30612463;28;97420;-72
2022/11/06 19:49:19;;;;;;;33.10;16.63;;;;;;;3.62;72.33;100214.22;30611909;28;96744;-65
2022/11/06 20:04:20;;;;;;;46.00;19.55;;;;;;;3.53;73.03;100181.56;30609248;28;97044;-68
2022/11/06 20:19:21;;;;;;;42.83;20.08;;;;;;;3.46;73.53;100174.28;30608885;28;96860;-68
2022/11/06 20:34:21;;;;;;;39.10;17.30;;;;;;;3.37;73.89;100155.63;30606004;28;98075;-69
2022/11/06 20:49:22;;;;;;;28.80;15.98;;;;;;;3.30;74.46;100151.84;30606360;28;97287;-71
2022/11/06 21:04:22;;;;;;;37.80;18.38;;;;;;;3.29;75.34;100152.78;30604699;28;97275;-68
2022/11/06 21:19:23;;;;;;;33.65;15.38;;;;;;;3.23;75.78;100137.50;30608790;28;97039;-72
2022/11/06 21:34:23;;;;;;;38.65;18.08;;;;;;;3.17;76.08;100156.41;30612529;28;96892;-72
2022/11/06 21:49:24;;;;;;;39.22;17.73;;;;;;;2.96;76.77;100148.44;30624423;28;96987;-69
2022/11/06 22:04:24;;;;;;;41.33;19.80;;;;;;;2.90;77.09;100128.72;30614812;28;96768;-70
2022/11/06 22:19:25;;;;;;;39.80;19.17;;;;;;;2.78;77.10;100108.66;30610526;28;96793;-67
2022/11/06 22:34:25;;;;;;;46.10;20.75;;;;;;;2.73;77.94;100084.50;30608984;28;97533;-72
2022/11/06 22:49:26;;;;;;;47.83;21.85;;;;;;;2.67;78.25;100062.16;30622304;28;96934;-69
2022/11/06 23:04:27;;;;;;;39.75;20.75;;;;;;;2.67;78.05;100049.00;30629807;28;96974;-76
2022/11/06 23:19:29;;;;;;;45.75;23.63;;;;;;;2.71;78.33;100051.25;30628063;28;96729;-68
2022/11/06 23:34:29;;;;;;;47.28;21.77;;;;;;;2.67;78.85;100039.31;30626283;28;97030;-68
2022/11/06 23:49:30;;;;;;;46.78;21.92;;;;;;;2.67;79.68;100026.16;30625390;28;97050;-71
